RJSKRJSA

Guest
Details From RJSK - AKITA
To RJSA - AOMORI
Flight Number -
Tags generated
Created
Modified
Stats Distance 71 nm / 132 km
Max Altitude 3,100 ft / 945 m
Waypoints 3
Social Downloads 0
Likes 0
Share VATSIM

Download

Looking for another format? Having issues loading an existing format? Contact us
Advertisement - Login to hide

Notes

Basic altitude profile: - Ascent Rate: 2500ft/min - Ascent Speed: 250kts - Cruise Altitude: 35000ft - Cruise Speed: 420kts - Descent Rate: 1500ft/min - Descent Speed: 250kts Options: - Use NATs: yes - Use PACOTS: yes - Use low airways: yes - Use high airways: yes

Route

RJSK YACHI RJSA

ID Type Via Altitude Latitude Longitude Leg Dist Tot Dist Heading (true) Name
O RJSK APT - 0 ft / 0 m 39.61564˚ 140.21867˚ - 0 nm - AKITA
YACHI FIX - 3,100 ft / 945 m 40.49040˚ 140.66805˚ 56 nm 56 nm 21° / 22° -
O RJSA APT - 0 ft / 0 m 40.73327˚ 140.68859˚ 14 nm 71 nm 4° / 4° AOMORI

Altitude Profile

Advertisement - Login to hide

RJSK

Details ICAO RJSK (AXT)
Name AKITA
Region Japan
Timezone Asia/Tokyo (UTC+9.0)
Stats Elevation 313 ft / 95 m (AMSL)
Location 39.615645° 140.218665°
Runways 1
Magnetic Variation 8.665° W

METAR

RJSK 130200Z 30011KT 9999 -SHSN FEW005 SCT015 BKN025 M00/M03 Q1012

Decode

TAF

TAF AMD RJSK 130010Z 1300/1406 28015KT 8000 -SHSN FEW010 BKN020 BKN030 TEMPO 1300/1306 28020G30KT 0700 TSSNGS FEW002 BKN005 BKN008 FEW020CB TEMPO 1306/1312 28020G30KT 0700 SHSN FEW002 BKN005 BKN008 TEMPO 1312/1318 1500 -SHSN FEW005 BKN008 BKN015 TEMPO 1318/1400 0700 SHSN FEW002 BKN005 BKN008 BECMG 1321/1400 32004KT

Decode

Departure Runways

ID Width Length Bearing (true) Bearing (mag) Surface Threshold Offset Overrun Length
10 200 ft / 61 m 8,184 ft / 2,495 m 96.62° 105.29° Asphalt 0 ft / 0 m 200 ft / 61 m
28 200 ft / 61 m 8,184 ft / 2,495 m 276.64° 285.31° Asphalt 0 ft / 0 m 200 ft / 61 m

RJSA

Details ICAO RJSA (AOJ)
Name AOMORI
Region Japan
Timezone Asia/Tokyo (UTC+9.0)
Stats Elevation 664 ft / 202 m (AMSL)
Location 40.733272° 140.688594°
Runways 1
Magnetic Variation 8.939° W

METAR

RJSA 130200Z 25012KT 0800 R24/P1800N SHSN FEW001 SCT005 BKN008 M03/M04 Q1009

Decode

TAF

TAF RJSA 122306Z 1300/1406 26015KT 6000 -SHSN FEW010 BKN015 BKN020 TEMPO 1300/1312 26020G30KT 0700 SHSN FEW002 BKN005 BKN008 TEMPO 1312/1318 0500 SHSN VV003 BECMG 1318/1321 02004KT TEMPO 1318/1400 1500 -SHSN FEW002 BKN005 BKN008

Decode

Destination Runways

ID Width Length Bearing (true) Bearing (mag) Surface Threshold Offset Overrun Length
06 200 ft / 61 m 9,838 ft / 2,999 m 51.79° 60.73° Asphalt 0 ft / 0 m 200 ft / 61 m
24 200 ft / 61 m 9,838 ft / 2,999 m 231.81° 240.75° Asphalt 0 ft / 0 m 200 ft / 61 m

Approach Navaids

Runway Type Ident Frequency Range Bearing (true) Bearing (mag) Slope Elevation
24 Localiser IMR 111.90 MHz 18 nm / 33 km 231.78° 240.72° - 664 ft / 202 m (AMSL)
24 Glidescope IMR 111.90 MHz 10 nm / 19 km 231.80° 240.74° 3.00° 664 ft / 202 m (AMSL)
24 DME IMR 111.90 MHz 18 nm / 33 km - - - 676 ft / 206 m (AMSL)